Time;durP1;ratioP1;P1;durP2;ratioP2;P2;SDS_P1;SDS_P2;PMS_P1;PMS_P2;Temp;Humidity;BMP_temperature;BMP_pressure;BME280_temperature;BME280_humidity;BME280_pressure;Samples;Min_cycle;Max_cycle;Signal;HPM_P1;HPM_P2
2021/10/04 00:02:21;;;;;;;2.20;1.77;;;15.40;88.40;;;;;;4977767;28;20038;-82
2021/10/04 00:04:46;;;;;;;2.05;1.60;;;15.30;89.00;;;;;;4980526;28;20034;-82
2021/10/04 00:07:12;;;;;;;2.03;1.67;;;15.30;88.70;;;;;;4982848;28;20409;-82
2021/10/04 00:09:39;;;;;;;2.53;1.48;;;15.40;89.30;;;;;;4987421;28;20042;-82
2021/10/04 00:12:06;;;;;;;1.77;1.60;;;15.40;89.20;;;;;;4984906;28;20034;-82
2021/10/04 00:14:32;;;;;;;3.55;1.92;;;15.40;89.60;;;;;;4983297;28;20478;-82
2021/10/04 00:16:57;;;;;;;3.88;1.67;;;15.40;89.50;;;;;;4987313;28;20097;-82
2021/10/04 00:19:23;;;;;;;1.92;1.45;;;15.30;89.40;;;;;;4991144;28;20109;-83
2021/10/04 00:21:50;;;;;;;2.67;1.80;;;15.30;90.20;;;;;;4999823;28;20033;-82
2021/10/04 00:24:15;;;;;;;1.92;1.40;;;15.30;89.60;;;;;;5002485;28;20117;-82
2021/10/04 00:26:41;;;;;;;2.67;1.85;;;15.30;89.20;;;;;;4992294;28;20113;-82
2021/10/04 00:29:07;;;;;;;2.17;1.50;;;15.20;89.50;;;;;;4993859;28;20115;-82
2021/10/04 00:31:33;;;;;;;1.92;1.30;;;15.20;89.60;;;;;;4991428;28;20038;-82
2021/10/04 00:34:00;;;;;;;2.65;1.40;;;15.20;90.10;;;;;;4992612;28;20022;-82
2021/10/04 00:36:26;;;;;;;2.67;1.70;;;15.20;90.20;;;;;;5008655;28;20026;-82
2021/10/04 00:38:51;;;;;;;1.90;1.45;;;15.20;90.10;;;;;;4992132;28;20071;-82
2021/10/04 00:41:17;;;;;;;1.98;1.40;;;15.20;90.30;;;;;;4987247;28;20033;-82
2021/10/04 00:43:43;;;;;;;1.63;1.52;;;15.20;89.90;;;;;;4991896;28;20046;-82
2021/10/04 00:46:08;;;;;;;1.80;1.40;;;15.10;90.30;;;;;;4990142;28;20461;-82
2021/10/04 00:48:34;;;;;;;3.22;1.52;;;15.10;90.40;;;;;;4989076;28;20452;-82
2021/10/04 00:51:00;;;;;;;2.28;1.60;;;15.10;90.50;;;;;;4992455;28;20413;-82
2021/10/04 00:53:25;;;;;;;2.90;1.88;;;15.10;90.30;;;;;;4993761;28;20029;-82
2021/10/04 00:55:51;;;;;;;5.55;1.88;;;15.10;90.10;;;;;;4990725;28;20030;-82
2021/10/04 00:58:17;;;;;;;2.05;1.38;;;15.00;90.20;;;;;;4987404;28;20720;-82
2021/10/04 01:00:42;;;;;;;1.90;1.60;;;14.90;90.30;;;;;;4989313;28;20037;-82
2021/10/04 01:03:08;;;;;;;2.65;1.98;;;14.80;90.50;;;;;;4988087;28;20038;-82
2021/10/04 01:05:34;;;;;;;2.08;1.73;;;14.90;90.50;;;;;;4989665;28;20048;-82
2021/10/04 01:08:00;;;;;;;2.10;1.60;;;14.90;90.50;;;;;;4986813;28;20058;-82
2021/10/04 01:10:26;;;;;;;2.00;1.80;;;15.00;90.50;;;;;;4991910;28;20032;-82
2021/10/04 01:12:52;;;;;;;1.65;1.40;;;15.00;90.40;;;;;;4988471;28;20030;-82
2021/10/04 01:15:21;;;;;;;1.60;1.40;;;15.00;90.40;;;;;;4991425;28;20121;-82
2021/10/04 01:17:47;;;;;;;2.92;2.08;;;15.00;90.50;;;;;;4991606;28;20081;-82
2021/10/04 01:20:22;;;;;;;1.98;1.58;;;15.00;90.40;;;;;;4987315;28;20121;-82
2021/10/04 01:22:48;;;;;;;2.47;1.83;;;15.00;90.80;;;;;;4987747;28;20034;-82
2021/10/04 01:25:15;;;;;;;2.88;1.77;;;14.90;91.00;;;;;;4989043;28;20034;-83
2021/10/04 01:27:42;;;;;;;2.53;1.70;;;14.90;91.30;;;;;;4991621;28;20033;-83
2021/10/04 01:30:09;;;;;;;2.50;1.55;;;14.90;91.30;;;;;;4989188;28;20037;-83
2021/10/04 01:32:36;;;;;;;3.88;1.80;;;14.90;91.00;;;;;;4988402;28;20034;-82
2021/10/04 01:35:02;;;;;;;2.53;1.65;;;14.90;91.00;;;;;;4990369;28;20026;-82
2021/10/04 01:37:28;;;;;;;2.35;1.80;;;14.90;90.90;;;;;;4989209;28;20553;-82
2021/10/04 01:39:53;;;;;;;1.45;1.33;;;14.90;91.00;;;;;;4988558;28;21710;-82
2021/10/04 01:42:20;;;;;;;2.00;1.55;;;15.00;90.90;;;;;;4991584;28;20042;-82
2021/10/04 01:44:45;;;;;;;2.30;1.90;;;15.00;90.80;;;;;;5007107;28;20034;-82
2021/10/04 01:47:11;;;;;;;1.98;1.63;;;15.00;90.90;;;;;;4992909;28;20037;-82
2021/10/04 01:49:37;;;;;;;3.53;1.77;;;15.00;90.90;;;;;;5005418;28;20038;-82
2021/10/04 01:52:03;;;;;;;1.92;1.67;;;15.00;91.30;;;;;;4991029;28;20039;-82
2021/10/04 01:54:29;;;;;;;1.63;1.52;;;15.00;90.90;;;;;;4991369;28;20538;-82
2021/10/04 01:56:54;;;;;;;3.08;1.60;;;15.00;91.00;;;;;;4991580;28;20045;-82
2021/10/04 01:59:20;;;;;;;1.80;1.60;;;14.90;91.00;;;;;;4989087;28;20034;-82
2021/10/04 02:01:46;;;;;;;4.70;1.85;;;14.90;91.00;;;;;;4988579;28;20061;-82
2021/10/04 02:04:11;;;;;;;1.95;1.60;;;14.80;91.60;;;;;;4985707;28;20125;-82
2021/10/04 02:06:37;;;;;;;1.63;1.50;;;14.70;91.80;;;;;;4990014;28;20079;-82
2021/10/04 02:09:03;;;;;;;1.63;1.52;;;14.70;91.90;;;;;;4990283;28;20693;-82
2021/10/04 02:11:28;;;;;;;3.10;1.40;;;14.70;91.90;;;;;;4992325;28;20057;-82
2021/10/04 02:13:54;;;;;;;2.00;1.50;;;14.70;92.00;;;;;;4990748;28;20452;-82
2021/10/04 02:16:20;;;;;;;1.48;1.38;;;14.70;91.60;;;;;;4992662;28;20053;-82
2021/10/04 02:18:46;;;;;;;2.53;1.40;;;14.70;91.60;;;;;;4992170;28;20030;-82
2021/10/04 02:21:12;;;;;;;1.73;1.63;;;14.70;91.60;;;;;;4991278;28;20033;-82
2021/10/04 02:23:37;;;;;;;1.70;1.60;;;14.70;91.50;;;;;;4993242;28;20089;-82
2021/10/04 02:26:03;;;;;;;2.30;1.55;;;14.80;91.50;;;;;;4985198;28;20030;-82
2021/10/04 02:28:29;;;;;;;3.00;1.75;;;14.80;91.40;;;;;;4991280;28;20036;-82
2021/10/04 02:30:56;;;;;;;2.80;1.50;;;14.80;91.40;;;;;;4989516;28;20042;-82
2021/10/04 02:33:22;;;;;;;2.20;1.77;;;14.80;92.10;;;;;;4990940;28;20030;-82
2021/10/04 02:35:48;;;;;;;3.42;1.63;;;14.80;91.70;;;;;;4988850;28;20044;-82
2021/10/04 02:38:14;;;;;;;2.53;1.70;;;14.80;91.50;;;;;;4986835;28;20057;-83
2021/10/04 02:40:40;;;;;;;2.05;1.38;;;14.70;91.60;;;;;;4990590;28;21559;-83
2021/10/04 02:43:07;;;;;;;4.05;1.75;;;14.70;91.60;;;;;;4992346;28;20077;-83
2021/10/04 02:45:33;;;;;;;3.33;2.00;;;14.80;91.70;;;;;;4988283;28;20133;-83
2021/10/04 02:48:01;;;;;;;2.30;1.58;;;14.80;91.70;;;;;;5008392;28;20116;-82
2021/10/04 02:50:28;;;;;;;2.15;1.73;;;14.80;91.60;;;;;;4988266;28;20122;-82
2021/10/04 02:52:54;;;;;;;2.45;1.70;;;14.80;91.70;;;;;;4992858;28;21284;-83
2021/10/04 02:55:20;;;;;;;2.40;1.70;;;14.80;91.50;;;;;;4993265;28;20290;-83
2021/10/04 02:57:46;;;;;;;1.75;1.25;;;14.80;91.80;;;;;;4988019;28;20026;-83
2021/10/04 03:00:14;;;;;;;1.95;1.75;;;14.80;91.60;;;;;;4988778;28;20077;-83
2021/10/04 03:02:40;;;;;;;2.72;2.20;;;14.80;91.60;;;;;;4991818;28;20050;-83
2021/10/04 03:05:06;;;;;;;2.28;1.70;;;14.80;91.70;;;;;;4988708;28;20486;-83
2021/10/04 03:07:32;;;;;;;1.60;1.45;;;14.80;91.80;;;;;;4991755;28;20038;-83
2021/10/04 03:09:57;;;;;;;1.98;1.60;;;14.80;91.60;;;;;;4991909;28;20034;-83
2021/10/04 03:12:23;;;;;;;2.42;1.83;;;14.80;91.60;;;;;;4990357;28;20042;-82
2021/10/04 03:14:49;;;;;;;2.40;1.90;;;14.80;92.00;;;;;;4989358;28;20393;-82
2021/10/04 03:17:15;;;;;;;2.03;1.80;;;14.80;91.70;;;;;;4990629;28;20094;-82
2021/10/04 03:19:40;;;;;;;5.30;1.90;;;14.80;91.60;;;;;;4992258;28;20042;-82
2021/10/04 03:22:06;;;;;;;3.05;1.80;;;14.80;91.80;;;;;;4987793;28;20081;-82
2021/10/04 03:24:32;;;;;;;3.17;1.80;;;14.80;91.50;;;;;;4994480;28;20485;-82
2021/10/04 03:26:58;;;;;;;3.78;1.60;;;14.80;91.70;;;;;;4988522;28;20557;-82
2021/10/04 03:29:24;;;;;;;1.60;1.50;;;14.80;91.70;;;;;;4988695;28;20042;-82
2021/10/04 03:31:50;;;;;;;2.80;1.80;;;14.80;92.10;;;;;;4992555;28;20425;-82
2021/10/04 03:34:16;;;;;;;2.10;1.90;;;14.80;91.90;;;;;;4988401;28;20058;-82
2021/10/04 03:36:42;;;;;;;2.45;1.80;;;14.70;91.80;;;;;;4989866;28;20120;-82
2021/10/04 03:39:09;;;;;;;3.95;1.77;;;14.70;91.90;;;;;;4993318;28;20022;-82
2021/10/04 03:41:35;;;;;;;3.22;1.98;;;14.60;92.00;;;;;;4989384;28;20153;-82
2021/10/04 03:44:01;;;;;;;1.90;1.67;;;14.60;92.00;;;;;;4993655;28;20053;-83
2021/10/04 03:46:27;;;;;;;2.70;1.60;;;14.60;92.00;;;;;;4990592;28;20043;-82
2021/10/04 03:48:52;;;;;;;2.63;1.80;;;14.50;92.10;;;;;;4994993;28;20531;-83
2021/10/04 03:51:18;;;;;;;1.73;1.60;;;14.40;92.10;;;;;;4993292;28;20037;-83
2021/10/04 03:53:44;;;;;;;2.22;1.55;;;14.40;92.00;;;;;;4991418;28;20072;-82
2021/10/04 03:56:10;;;;;;;1.90;1.50;;;14.40;92.20;;;;;;4994299;28;20030;-82
2021/10/04 03:58:36;;;;;;;2.08;1.40;;;14.30;92.00;;;;;;4992912;28;20022;-82
2021/10/04 04:01:02;;;;;;;2.05;1.55;;;14.30;91.90;;;;;;4995119;28;20080;-82
2021/10/04 04:03:28;;;;;;;4.13;1.77;;;14.40;91.80;;;;;;4990231;28;20512;-82
2021/10/04 04:05:53;;;;;;;1.30;1.20;;;14.30;91.80;;;;;;4993073;28;20073;-82
2021/10/04 04:08:20;;;;;;;1.95;1.40;;;14.30;91.80;;;;;;4994839;28;20042;-82
2021/10/04 04:10:45;;;;;;;1.75;1.55;;;14.30;91.70;;;;;;4995530;28;20030;-82
2021/10/04 04:13:11;;;;;;;2.75;1.80;;;14.30;91.40;;;;;;4990424;28;20053;-82
2021/10/04 04:15:37;;;;;;;1.45;1.20;;;14.20;91.10;;;;;;4995525;28;20023;-82
2021/10/04 04:18:03;;;;;;;1.48;1.23;;;14.20;91.10;;;;;;4993836;28;20037;-82
2021/10/04 04:20:28;;;;;;;1.65;1.20;;;14.10;91.10;;;;;;4996799;28;20027;-82
2021/10/04 04:22:54;;;;;;;1.70;1.05;;;14.10;91.10;;;;;;4991030;28;20034;-83
2021/10/04 04:25:20;;;;;;;1.83;1.30;;;14.00;91.10;;;;;;4993349;28;20065;-83
2021/10/04 04:27:46;;;;;;;1.38;1.10;;;14.00;90.90;;;;;;4997072;28;20156;-83
2021/10/04 04:30:13;;;;;;;1.80;1.10;;;13.90;90.80;;;;;;4990844;28;20036;-83
2021/10/04 04:32:40;;;;;;;2.25;1.40;;;14.00;90.70;;;;;;4995574;28;20113;-83
2021/10/04 04:35:06;;;;;;;0.98;0.95;;;13.90;90.60;;;;;;4991021;28;20026;-83
2021/10/04 04:37:34;;;;;;;1.80;1.08;;;13.80;90.70;;;;;;4994690;28;20050;-83
2021/10/04 04:39:59;;;;;;;1.20;1.10;;;13.80;90.60;;;;;;4994408;28;20026;-83
2021/10/04 04:42:25;;;;;;;1.35;1.00;;;13.80;90.20;;;;;;4991392;28;20043;-83
2021/10/04 04:44:52;;;;;;;1.30;1.10;;;13.80;90.20;;;;;;4994740;28;20485;-82
2021/10/04 04:47:17;;;;;;;1.30;1.20;;;13.80;90.20;;;;;;4994698;28;20042;-83
2021/10/04 04:49:43;;;;;;;1.05;1.00;;;13.80;90.30;;;;;;4994459;28;20456;-83
2021/10/04 04:52:09;;;;;;;1.35;1.25;;;13.70;90.50;;;;;;4992091;28;20034;-83
2021/10/04 04:54:34;;;;;;;1.27;1.10;;;13.70;90.60;;;;;;4990595;28;20069;-83
2021/10/04 04:57:01;;;;;;;1.17;1.08;;;13.60;90.50;;;;;;4992734;28;20026;-83
2021/10/04 04:59:27;;;;;;;0.93;0.90;;;13.60;90.50;;;;;;4993394;28;20026;-82
2021/10/04 05:01:53;;;;;;;1.58;1.08;;;13.60;90.30;;;;;;4989022;28;20066;-83
2021/10/04 05:04:19;;;;;;;0.90;0.90;;;13.60;90.30;;;;;;4992746;28;20030;-82
2021/10/04 05:06:45;;;;;;;0.95;0.95;;;13.60;90.10;;;;;;4989849;28;20034;-82
2021/10/04 05:09:11;;;;;;;1.25;0.85;;;13.50;89.90;;;;;;4997443;28;20408;-82
2021/10/04 05:11:37;;;;;;;1.77;0.77;;;13.50;89.90;;;;;;4997468;28;20030;-82
2021/10/04 05:14:03;;;;;;;0.73;0.73;;;13.50;90.10;;;;;;4992526;28;20088;-82
2021/10/04 05:16:29;;;;;;;1.80;1.05;;;13.50;90.00;;;;;;4993845;28;20031;-82
2021/10/04 05:18:55;;;;;;;0.80;0.80;;;13.40;90.00;;;;;;4994736;28;20022;-82
2021/10/04 05:21:20;;;;;;;1.05;1.02;;;13.40;90.20;;;;;;4988673;28;22148;-83
2021/10/04 05:23:46;;;;;;;0.80;0.80;;;13.40;90.00;;;;;;4991429;28;20069;-82
2021/10/04 05:26:12;;;;;;;0.65;0.65;;;13.40;89.50;;;;;;4994884;28;20032;-82
2021/10/04 05:28:37;;;;;;;0.68;0.68;;;13.40;90.10;;;;;;4989253;28;20065;-82
2021/10/04 05:31:03;;;;;;;1.90;0.77;;;13.40;89.80;;;;;;4994897;28;20037;-82
2021/10/04 05:33:29;;;;;;;0.68;0.68;;;13.30;90.00;;;;;;4997722;28;20388;-82
2021/10/04 05:35:54;;;;;;;1.42;0.85;;;13.30;90.10;;;;;;4995785;28;20307;-82
2021/10/04 05:38:20;;;;;;;1.33;0.75;;;13.30;89.80;;;;;;4995840;28;20121;-82
2021/10/04 05:40:46;;;;;;;0.82;0.75;;;13.30;90.20;;;;;;5005184;28;20022;-83
2021/10/04 05:43:12;;;;;;;1.10;0.80;;;13.30;90.40;;;;;;4988430;28;20045;-82
2021/10/04 05:45:37;;;;;;;0.95;0.93;;;13.30;90.00;;;;;;4986028;28;20042;-82
2021/10/04 05:48:04;;;;;;;0.80;0.80;;;13.30;90.20;;;;;;4988354;28;20456;-82
2021/10/04 05:50:29;;;;;;;0.98;0.93;;;13.30;90.50;;;;;;4987667;28;20493;-82
2021/10/04 05:52:55;;;;;;;0.98;0.90;;;13.30;90.30;;;;;;4994481;28;20038;-83
2021/10/04 05:55:21;;;;;;;0.80;0.80;;;13.30;90.30;;;;;;4991722;28;20121;-83
2021/10/04 05:57:46;;;;;;;1.92;1.08;;;13.30;90.40;;;;;;4991778;28;20112;-83
2021/10/04 06:00:14;;;;;;;0.90;0.90;;;13.30;90.40;;;;;;4993667;28;20026;-82
2021/10/04 06:02:40;;;;;;;1.33;1.10;;;13.30;90.30;;;;;;4993226;28;20035;-82
2021/10/04 06:05:07;;;;;;;1.35;1.20;;;13.30;90.60;;;;;;4990869;28;20037;-83
2021/10/04 06:07:33;;;;;;;1.35;1.25;;;13.30;90.20;;;;;;4990706;28;20081;-82
2021/10/04 06:09:59;;;;;;;1.30;1.20;;;13.30;90.30;;;;;;4993423;28;20080;-82
2021/10/04 06:12:28;;;;;;;1.88;1.65;;;13.30;90.40;;;;;;4993696;28;20058;-82
2021/10/04 06:14:58;;;;;;;1.42;1.30;;;13.40;90.30;;;;;;4991104;28;20077;-82
2021/10/04 06:17:25;;;;;;;1.63;1.35;;;13.40;90.60;;;;;;4993345;28;20034;-83
2021/10/04 06:19:51;;;;;;;1.92;1.40;;;13.40;91.10;;;;;;4991286;28;20109;-83
2021/10/04 06:22:18;;;;;;;2.28;1.70;;;13.40;90.70;;;;;;4992589;28;20525;-83
2021/10/04 06:24:44;;;;;;;1.67;1.58;;;13.40;91.20;;;;;;4987177;28;20149;-83
2021/10/04 06:27:10;;;;;;;2.08;1.60;;;13.40;90.90;;;;;;4987525;28;20113;-83
2021/10/04 06:29:37;;;;;;;1.50;1.40;;;13.40;91.10;;;;;;4986443;28;20031;-83
2021/10/04 06:32:04;;;;;;;1.83;1.50;;;13.30;90.90;;;;;;4983823;28;20034;-83
2021/10/04 06:34:30;;;;;;;2.03;1.52;;;13.30;91.20;;;;;;4987063;28;20034;-83
2021/10/04 06:36:56;;;;;;;2.28;1.80;;;13.30;91.20;;;;;;4989678;28;20030;-82
2021/10/04 06:39:21;;;;;;;1.95;1.77;;;13.30;91.10;;;;;;4989773;28;20031;-82
2021/10/04 06:41:47;;;;;;;1.50;1.40;;;13.30;90.60;;;;;;4987117;28;20973;-82
2021/10/04 06:44:13;;;;;;;1.45;1.35;;;13.20;90.90;;;;;;4989317;28;20492;-82
2021/10/04 06:46:38;;;;;;;1.58;1.42;;;13.20;91.20;;;;;;4988975;28;20037;-83
2021/10/04 06:49:05;;;;;;;1.88;1.60;;;13.20;91.10;;;;;;4985510;28;20057;-83
2021/10/04 06:51:31;;;;;;;1.70;1.60;;;13.30;91.50;;;;;;4988809;28;20092;-82
2021/10/04 06:53:57;;;;;;;2.35;1.73;;;13.20;91.00;;;;;;4986532;28;20057;-83
2021/10/04 06:56:22;;;;;;;1.92;1.33;;;13.20;90.80;;;;;;4988365;28;20026;-82
2021/10/04 06:58:48;;;;;;;1.25;1.20;;;13.10;90.60;;;;;;4987236;28;20053;-82
2021/10/04 07:01:14;;;;;;;3.65;1.40;;;13.10;90.90;;;;;;4988565;28;20031;-82
2021/10/04 07:03:39;;;;;;;1.38;1.27;;;13.10;91.40;;;;;;4986250;28;20038;-82
2021/10/04 07:06:05;;;;;;;1.70;1.10;;;13.10;90.80;;;;;;4984399;28;20397;-82
2021/10/04 07:08:31;;;;;;;3.58;1.30;;;13.10;91.00;;;;;;4989789;28;20504;-83
2021/10/04 07:10:56;;;;;;;3.15;1.10;;;13.20;90.90;;;;;;4987354;28;20060;-82
2021/10/04 07:13:22;;;;;;;1.27;1.27;;;13.20;90.60;;;;;;4985577;28;20065;-82
2021/10/04 07:15:48;;;;;;;0.90;0.90;;;13.20;90.80;;;;;;4993651;28;22365;-82
2021/10/04 07:18:14;;;;;;;1.48;1.20;;;13.10;90.50;;;;;;4988934;28;20120;-82
2021/10/04 07:20:40;;;;;;;1.73;1.10;;;13.10;90.80;;;;;;4992509;28;20509;-83
2021/10/04 07:23:06;;;;;;;0.95;0.95;;;13.10;90.90;;;;;;4987190;28;20389;-83
2021/10/04 07:25:33;;;;;;;0.85;0.85;;;13.20;91.00;;;;;;4991301;28;20033;-83
2021/10/04 07:27:59;;;;;;;1.20;1.10;;;13.30;90.80;;;;;;4991511;28;20049;-83
2021/10/04 07:30:24;;;;;;;0.93;0.93;;;13.30;91.30;;;;;;4992373;28;20060;-83
2021/10/04 07:32:50;;;;;;;1.10;0.90;;;13.40;90.90;;;;;;4994603;28;21045;-82
2021/10/04 07:35:16;;;;;;;0.88;0.70;;;13.40;90.30;;;;;;4991315;28;20045;-83
2021/10/04 07:37:42;;;;;;;1.45;1.00;;;13.40;90.50;;;;;;4991301;28;20206;-82
2021/10/04 07:40:09;;;;;;;0.73;0.73;;;13.40;90.10;;;;;;4992245;28;20022;-82
2021/10/04 07:42:35;;;;;;;0.90;0.90;;;13.40;90.00;;;;;;4992440;28;20041;-83
2021/10/04 07:45:01;;;;;;;1.17;0.80;;;13.30;90.10;;;;;;5009524;28;20118;-83
2021/10/04 07:47:27;;;;;;;0.77;0.70;;;13.30;89.80;;;;;;4986827;28;20556;-83
2021/10/04 07:49:53;;;;;;;0.70;0.70;;;13.40;90.10;;;;;;4992062;28;20031;-83
2021/10/04 07:52:19;;;;;;;0.60;0.60;;;13.40;89.40;;;;;;4991854;28;20393;-83
2021/10/04 07:54:45;;;;;;;0.60;0.60;;;13.30;89.40;;;;;;4991242;28;20673;-83
2021/10/04 07:57:13;;;;;;;0.60;0.60;;;13.30;89.60;;;;;;4988575;28;20026;-82
2021/10/04 07:59:40;;;;;;;0.77;0.77;;;13.40;89.60;;;;;;4990245;28;20030;-82
2021/10/04 08:02:07;;;;;;;0.60;0.60;;;13.30;89.50;;;;;;4996290;28;20037;-83
2021/10/04 08:04:33;;;;;;;2.83;1.23;;;13.30;90.50;;;;;;4987469;28;20041;-83
2021/10/04 08:06:59;;;;;;;0.85;0.85;;;13.30;90.30;;;;;;4992526;28;20710;-83
2021/10/04 08:09:25;;;;;;;0.70;0.70;;;13.30;90.40;;;;;;4993342;28;20041;-83
2021/10/04 08:11:50;;;;;;;0.85;0.85;;;13.30;90.40;;;;;;4991150;28;20196;-83
2021/10/04 08:14:16;;;;;;;0.90;0.90;;;13.30;90.70;;;;;;4989445;28;20080;-83
2021/10/04 08:16:41;;;;;;;0.60;0.60;;;13.30;90.60;;;;;;4990286;28;20401;-83
2021/10/04 08:19:07;;;;;;;0.65;0.65;;;13.30;90.30;;;;;;4991617;28;20029;-83
2021/10/04 08:21:33;;;;;;;1.13;1.02;;;13.40;90.40;;;;;;4989441;28;20093;-83
2021/10/04 08:24:01;;;;;;;1.35;0.80;;;13.40;89.60;;;;;;4994078;28;20034;-83
2021/10/04 08:26:28;;;;;;;0.77;0.77;;;13.50;90.00;;;;;;4988800;28;20026;-83
2021/10/04 08:28:54;;;;;;;0.73;0.68;;;13.50;90.00;;;;;;4992440;28;20105;-83
2021/10/04 08:31:21;;;;;;;0.70;0.70;;;13.50;90.20;;;;;;4991152;28;20129;-78
2021/10/04 08:33:47;;;;;;;0.90;0.73;;;13.50;90.20;;;;;;4989149;28;21175;-83
2021/10/04 08:36:13;;;;;;;0.60;0.60;;;13.50;89.30;;;;;;4995660;28;20116;-83
2021/10/04 08:38:38;;;;;;;0.73;0.73;;;13.50;89.80;;;;;;4996769;28;20179;-83
2021/10/04 08:41:04;;;;;;;0.95;0.95;;;13.50;90.10;;;;;;4992800;28;20911;-83
2021/10/04 08:43:31;;;;;;;0.90;0.90;;;13.40;90.20;;;;;;4994407;28;20667;-83
2021/10/04 08:46:00;;;;;;;0.77;0.77;;;13.40;91.10;;;;;;4993310;28;20037;-83
2021/10/04 08:48:27;;;;;;;0.88;0.88;;;13.50;90.40;;;;;;4992874;28;20432;-83
2021/10/04 08:50:55;;;;;;;1.20;1.10;;;13.50;89.40;;;;;;4992985;28;20081;-83
2021/10/04 08:53:21;;;;;;;;;;;13.50;88.40;;;;;;4990251;28;20027;-83
2021/10/04 08:55:47;;;;;;;1.10;1.00;;;13.40;89.10;;;;;;4995464;28;19981;-83
2021/10/04 08:58:12;;;;;;;0.93;0.90;;;13.40;90.30;;;;;;4992409;28;20030;-83
2021/10/04 09:00:38;;;;;;;0.98;0.95;;;13.40;90.10;;;;;;4992969;28;20022;-83
2021/10/04 09:03:05;;;;;;;1.00;1.00;;;13.40;90.30;;;;;;4991586;28;20026;-82
2021/10/04 09:05:32;;;;;;;0.70;0.70;;;13.30;89.60;;;;;;4987416;28;20401;-84
2021/10/04 09:08:12;;;;;;;1.60;1.35;;;13.40;90.20;;;;;;4996994;28;20035;-83
2021/10/04 09:10:41;;;;;;;1.27;1.08;;;13.40;90.30;;;;;;4995344;28;20025;-83
2021/10/04 09:13:06;;;;;;;1.08;0.80;;;13.40;90.00;;;;;;4990873;28;20031;-83
2021/10/04 09:15:41;;;;;;;1.30;1.20;;;13.40;90.40;;;;;;4992120;28;20037;-83
2021/10/04 09:18:31;;;;;;;1.38;1.10;;;13.40;90.20;;;;;;4993433;28;20038;-83
2021/10/04 09:21:05;;;;;;;3.05;1.40;;;13.50;89.10;;;;;;5009362;28;20030;-83
2021/10/04 09:23:48;;;;;;;1.35;1.10;;;13.50;89.60;;;;;;4991617;28;20098;-84
2021/10/04 09:26:26;;;;;;;1.10;1.10;;;13.50;89.60;;;;;;4991459;28;20029;-84
2021/10/04 09:29:08;;;;;;;1.20;1.10;;;13.60;90.30;;;;;;5002543;28;20485;-84
2021/10/04 09:31:39;;;;;;;0.80;0.80;;;13.60;90.30;;;;;;4988514;28;20031;-84
2021/10/04 09:34:08;;;;;;;1.33;1.23;;;13.60;90.30;;;;;;4994624;28;20068;-83
2021/10/04 09:36:35;;;;;;;;;;;13.60;90.00;;;;;;4993967;28;20050;-83
2021/10/04 09:39:12;;;;;;;1.10;1.10;;;13.50;90.10;;;;;;4992681;28;19972;-83
2021/10/04 09:41:58;;;;;;;1.13;1.07;;;13.50;90.00;;;;;;4993803;28;20023;-83
2021/10/04 09:44:26;;;;;;;2.40;1.33;;;13.50;89.40;;;;;;4991946;28;20084;-83
2021/10/04 09:46:51;;;;;;;1.75;1.00;;;13.40;90.40;;;;;;4991864;28;20401;-83
2021/10/04 09:49:17;;;;;;;0.95;0.95;;;13.30;90.10;;;;;;4995944;28;20034;-84
2021/10/04 09:51:53;;;;;;;1.15;1.05;;;13.40;89.90;;;;;;4994858;28;20037;-83
2021/10/04 09:54:19;;;;;;;1.55;1.45;;;13.40;89.60;;;;;;4996884;28;20030;-83
2021/10/04 09:56:46;;;;;;;1.30;1.10;;;13.40;89.70;;;;;;5005655;28;20058;-83
2021/10/04 09:59:12;;;;;;;0.90;0.90;;;13.50;89.60;;;;;;4995637;28;20019;-83
2021/10/04 10:01:38;;;;;;;1.80;0.90;;;13.50;90.10;;;;;;5010818;28;20516;-83
2021/10/04 10:04:04;;;;;;;0.80;0.80;;;13.40;89.10;;;;;;4991514;28;20041;-83
2021/10/04 10:06:33;;;;;;;0.80;0.80;;;13.50;89.90;;;;;;4995918;28;20030;-83
2021/10/04 10:08:59;;;;;;;2.05;0.90;;;13.50;89.80;;;;;;4995971;28;20038;-83
2021/10/04 10:11:28;;;;;;;0.93;0.90;;;13.50;89.90;;;;;;4991003;28;20405;-83
2021/10/04 10:13:54;;;;;;;1.40;1.30;;;13.50;90.10;;;;;;4991851;28;20539;-83
2021/10/04 10:16:29;;;;;;;1.02;1.00;;;13.50;89.80;;;;;;4984605;28;20026;-83
2021/10/04 10:19:18;;;;;;;1.63;1.13;;;13.30;89.90;;;;;;4992783;28;20023;-82
2021/10/04 10:21:44;;;;;;;1.00;0.90;;;13.20;90.60;;;;;;4988595;28;20038;-83
2021/10/04 10:24:11;;;;;;;1.00;1.00;;;13.20;90.60;;;;;;4992018;28;20030;-83
2021/10/04 10:26:45;;;;;;;0.90;0.90;;;13.20;90.50;;;;;;4996573;28;20045;-84
2021/10/04 10:29:17;;;;;;;1.55;1.45;;;13.30;90.60;;;;;;4998098;28;20041;-83
2021/10/04 10:31:57;;;;;;;0.70;0.70;;;13.30;90.30;;;;;;4993715;28;20089;-83
2021/10/04 10:34:35;;;;;;;1.20;0.95;;;13.40;89.90;;;;;;5011590;28;20018;-84
2021/10/04 10:37:10;;;;;;;1.15;0.60;;;13.40;89.80;;;;;;4991709;28;20118;-84
2021/10/04 10:39:43;;;;;;;0.60;0.60;;;13.40;90.20;;;;;;4990065;28;20019;-83
2021/10/04 10:42:12;;;;;;;0.80;0.80;;;13.40;89.20;;;;;;4988583;28;20037;-83
2021/10/04 10:44:59;;;;;;;1.05;0.80;;;13.40;88.90;;;;;;4995834;28;20025;-83
2021/10/04 10:47:36;;;;;;;0.50;0.50;;;13.50;89.10;;;;;;4992119;28;20101;-83
2021/10/04 10:50:11;;;;;;;0.50;0.50;;;13.50;89.00;;;;;;4990250;28;20054;-83
2021/10/04 10:52:55;;;;;;;0.65;0.65;;;13.40;90.00;;;;;;5005786;28;20042;-81
2021/10/04 10:55:20;;;;;;;0.63;0.63;;;13.50;88.80;;;;;;4990291;28;20469;-80
2021/10/04 10:57:49;;;;;;;0.43;0.43;;;13.40;88.60;;;;;;4992404;28;20058;-81
2021/10/04 11:00:30;;;;;;;0.65;0.65;;;13.40;87.90;;;;;;5006021;28;20400;-83
2021/10/04 11:03:20;;;;;;;0.50;0.50;;;13.40;87.90;;;;;;4993825;28;21023;-81
2021/10/04 11:05:56;;;;;;;0.90;0.50;;;13.50;88.70;;;;;;4991317;28;20108;-81
2021/10/04 11:08:45;;;;;;;0.35;0.35;;;13.50;88.90;;;;;;4994461;28;20461;-81
2021/10/04 11:11:19;;;;;;;0.47;0.47;;;13.50;88.20;;;;;;4992278;28;20124;-81
2021/10/04 11:14:06;;;;;;;2.08;1.98;;;13.40;89.00;;;;;;4995809;28;20034;-82
2021/10/04 11:16:36;;;;;;;1.17;0.60;;;13.40;88.20;;;;;;4991532;28;20038;-82
2021/10/04 11:19:04;;;;;;;0.70;0.68;;;13.40;87.70;;;;;;4988826;28;20049;-82
2021/10/04 11:21:31;;;;;;;1.02;0.77;;;13.40;87.80;;;;;;4992377;28;20125;-82
2021/10/04 11:24:08;;;;;;;1.00;0.60;;;13.40;88.00;;;;;;4993518;28;20477;-82
2021/10/04 11:26:35;;;;;;;0.60;0.60;;;13.40;88.70;;;;;;4991074;28;20057;-81
2021/10/04 11:29:04;;;;;;;0.52;0.52;;;13.40;87.60;;;;;;4994564;28;20547;-82
2021/10/04 11:31:30;;;;;;;;;;;13.40;88.00;;;;;;4990953;28;20124;-81
2021/10/04 11:34:00;;;;;;;0.60;0.60;;;13.50;88.40;;;;;;4999208;28;20037;-81
2021/10/04 11:36:33;;;;;;;0.50;0.50;;;13.50;87.90;;;;;;4992141;28;20029;-82
2021/10/04 11:39:03;;;;;;;1.55;0.40;;;13.50;88.10;;;;;;4992586;28;20548;-82
2021/10/04 11:41:31;;;;;;;1.65;0.50;;;13.50;87.20;;;;;;4991660;28;20037;-81
2021/10/04 11:44:07;;;;;;;0.57;0.57;;;13.50;87.00;;;;;;4993871;28;20034;-81
2021/10/04 11:47:03;;;;;;;0.40;0.40;;;13.40;86.20;;;;;;4990493;28;20420;-82
2021/10/04 11:49:38;;;;;;;0.50;0.50;;;13.40;86.70;;;;;;4992483;28;20034;-82
2021/10/04 11:52:16;;;;;;;0.40;0.40;;;13.40;86.50;;;;;;4995508;28;20070;-82
2021/10/04 11:54:45;;;;;;;0.75;0.40;;;13.40;86.80;;;;;;5009038;28;20043;-83
2021/10/04 11:57:20;;;;;;;1.67;0.32;;;13.40;86.70;;;;;;4991374;28;20030;-82
2021/10/04 11:59:54;;;;;;;0.50;0.50;;;13.40;87.60;;;;;;4994177;28;20363;-83
2021/10/04 12:02:22;;;;;;;0.60;0.60;;;13.40;87.50;;;;;;4993180;28;20027;-83
2021/10/04 12:04:48;;;;;;;0.60;0.60;;;13.40;87.20;;;;;;4992121;28;20018;-82
2021/10/04 12:07:15;;;;;;;1.23;0.73;;;13.40;87.50;;;;;;4995352;28;20532;-82
2021/10/04 12:09:41;;;;;;;0.75;0.47;;;13.40;87.60;;;;;;4999059;28;20421;-82
2021/10/04 12:12:07;;;;;;;0.70;0.70;;;13.30;88.50;;;;;;5001640;28;20022;-82
2021/10/04 12:14:34;;;;;;;0.55;0.55;;;13.30;88.70;;;;;;4995645;28;20053;-82
2021/10/04 12:17:02;;;;;;;0.83;0.50;;;13.30;89.60;;;;;;4998354;28;20066;-81
2021/10/04 12:19:28;;;;;;;0.50;0.50;;;13.20;88.10;;;;;;4998650;28;20029;-81
2021/10/04 12:21:55;;;;;;;0.80;0.80;;;13.20;89.10;;;;;;4992064;28;20481;-83
2021/10/04 12:24:32;;;;;;;0.70;0.70;;;13.20;88.90;;;;;;4996308;28;20035;-81
2021/10/04 12:27:08;;;;;;;0.70;0.70;;;13.20;89.20;;;;;;4996948;28;20499;-82
2021/10/04 12:29:38;;;;;;;0.65;0.60;;;13.20;89.30;;;;;;4997443;28;20022;-82
2021/10/04 12:32:42;;;;;;;0.63;0.63;;;13.20;89.10;;;;;;4999112;28;20468;-82
2021/10/04 12:35:15;;;;;;;0.80;0.70;;;13.20;89.00;;;;;;4994415;28;20046;-82
2021/10/04 12:37:57;;;;;;;0.50;0.50;;;13.20;89.00;;;;;;4998634;28;20055;-82
2021/10/04 12:40:29;;;;;;;1.17;0.60;;;13.20;89.20;;;;;;4996808;28;20030;-81
2021/10/04 12:43:04;;;;;;;3.38;1.02;;;13.30;89.40;;;;;;4994277;28;20025;-82
2021/10/04 12:45:31;;;;;;;0.70;0.70;;;13.30;89.60;;;;;;4996275;28;20030;-82
2021/10/04 12:48:04;;;;;;;0.70;0.70;;;13.30;89.50;;;;;;4993758;28;20136;-82
2021/10/04 12:50:38;;;;;;;0.70;0.70;;;13.40;89.60;;;;;;4993462;28;20101;-82
2021/10/04 12:53:18;;;;;;;0.60;0.60;;;13.40;89.90;;;;;;4995636;28;20050;-81